Miland, Texas
Current Conditions -  °F | °C
As of 9:56 AM on Sunday 25 Jan 2015 (Local Time) from KAQV Reporting Station
Clear Clear  
Wind Chill: 54°   Ceiling: Unl
Heat Index: 54°   Visibility: 10mi
Dew Point: 39°   Wind: 7mph
Humidity: 57%   Direction: NA
Pressure: 29.93"   Gusts: NA
Location:  31.4918°N, 93.8786°W
Report Text: KAQV 251556Z AUTO VRB06KT 10SM CLR 12/04 A2993 RMK AO2 SLP137 T01220039 PNO $
Loading
Personal Weather Stations






























Interactive Weather Map New forecast layout! Learn more

10-Day Weather Forecast

Advertisements
Track Severe Weather on mobile